createdAt,value
2023-08-11T00:01:47.609Z,9.80
2023-08-11T00:04:20.148Z,9.00
2023-08-11T00:09:19.041Z,8.90
2023-08-11T00:11:48.711Z,10.23
2023-08-11T00:14:18.266Z,7.10
2023-08-11T00:16:47.827Z,12.32
2023-08-11T00:19:20.086Z,9.45
2023-08-11T00:21:49.691Z,8.25
2023-08-11T00:24:19.870Z,11.32
2023-08-11T00:26:49.431Z,9.52
2023-08-11T00:29:19.080Z,8.68
2023-08-11T00:31:49.455Z,10.40
2023-08-11T00:34:21.856Z,9.43
2023-08-11T00:36:51.468Z,9.45
2023-08-11T00:39:21.061Z,8.98
2023-08-11T00:41:51.382Z,7.95
2023-08-11T00:44:20.984Z,7.93
2023-08-11T00:46:51.207Z,11.80
2023-08-11T00:49:23.539Z,9.35
2023-08-11T00:51:54.223Z,6.75
2023-08-11T00:54:25.475Z,8.95
2023-08-11T00:56:55.397Z,9.18
2023-08-11T00:59:25.334Z,6.13
2023-08-11T01:01:55.251Z,9.48
2023-08-11T01:04:27.443Z,7.20
2023-08-11T01:07:18.629Z,6.63
2023-08-11T01:09:55.500Z,9.30
2023-08-11T01:12:33.282Z,6.82
2023-08-11T01:15:14.366Z,9.38
2023-08-11T01:17:45.254Z,17.02
2023-08-11T01:20:19.741Z,11.07
2023-08-11T01:22:53.589Z,8.18
2023-08-11T01:25:27.121Z,9.02
2023-08-11T01:27:58.964Z,8.15
2023-08-11T01:30:31.515Z,9.32
2023-08-11T01:33:01.494Z,8.00
2023-08-11T01:35:40.913Z,10.43
2023-08-11T01:38:10.158Z,8.75
2023-08-11T01:40:43.105Z,7.45
2023-08-11T01:43:15.423Z,6.47
2023-08-11T01:45:46.310Z,8.98
2023-08-11T01:48:18.170Z,7.95
2023-08-11T01:50:48.261Z,11.32
2023-08-11T01:53:18.190Z,5.05
2023-08-11T01:55:51.773Z,8.75
2023-08-11T01:58:21.356Z,13.57
2023-08-11T02:00:50.963Z,13.10
2023-08-11T02:03:21.850Z,6.82
2023-08-11T02:05:51.555Z,6.65
2023-08-11T02:08:22.310Z,7.10
2023-08-11T02:10:54.740Z,6.75
2023-08-11T02:13:24.361Z,8.27
2023-08-11T02:15:54.470Z,9.20
2023-08-11T02:18:24.105Z,7.20
2023-08-11T02:20:53.702Z,10.07
2023-08-11T02:23:23.262Z,7.25
2023-08-11T02:25:55.674Z,7.50
2023-08-11T02:28:25.522Z,5.93
2023-08-11T02:30:55.354Z,11.00
2023-08-11T02:33:24.959Z,6.80
2023-08-11T02:35:55.249Z,6.13
2023-08-11T02:38:24.782Z,7.10
2023-08-11T02:40:56.946Z,6.72
2023-08-11T02:43:26.630Z,11.52
2023-08-11T02:45:56.474Z,6.85
2023-08-11T02:48:26.150Z,8.82
2023-08-11T02:50:55.744Z,9.65
2023-08-11T02:53:25.306Z,3.05
2023-08-11T02:55:57.503Z,8.88
2023-08-11T02:58:27.365Z,5.22
2023-08-11T03:00:59.238Z,8.40
2023-08-11T03:03:30.019Z,6.85
2023-08-11T03:05:59.760Z,8.32
2023-08-11T03:08:29.525Z,10.25
2023-08-11T03:11:01.931Z,9.90
2023-08-11T03:13:37.056Z,7.57
2023-08-11T03:16:07.476Z,7.53
2023-08-11T03:18:37.535Z,6.28
2023-08-11T03:21:18.535Z,8.40
2023-08-11T03:23:49.887Z,6.30
2023-08-11T03:26:22.585Z,7.45
2023-08-11T03:28:52.213Z,9.95
2023-08-11T03:31:22.296Z,6.60
2023-08-11T03:36:24.016Z,12.55
2023-08-11T03:38:53.664Z,5.82
2023-08-11T03:41:26.113Z,6.70
2023-08-11T03:43:55.832Z,12.32
2023-08-11T03:46:26.278Z,7.15
2023-08-11T03:48:56.463Z,8.50
2023-08-11T03:51:26.092Z,8.40
2023-08-11T03:53:55.689Z,10.38
2023-08-11T03:56:29.116Z,9.25
2023-08-11T04:01:29.358Z,8.05
2023-08-11T04:03:58.987Z,6.20
2023-08-11T04:06:33.857Z,10.32
2023-08-11T04:09:05.315Z,7.45
2023-08-11T04:11:37.494Z,10.57
2023-08-11T04:14:07.195Z,10.30
2023-08-11T04:16:36.931Z,9.52
2023-08-11T04:19:06.982Z,8.95
2023-08-11T04:21:36.580Z,9.57
2023-08-11T04:24:06.844Z,9.93
2023-08-11T04:26:39.576Z,10.73
2023-08-11T04:29:10.348Z,9.05
2023-08-11T04:31:41.366Z,7.13
2023-08-11T04:34:11.752Z,8.10
2023-08-11T04:36:41.431Z,6.97
2023-08-11T04:39:11.739Z,11.77
2023-08-11T04:41:44.105Z,7.53
2023-08-11T04:44:13.696Z,9.82
2023-08-11T04:46:43.361Z,10.75
2023-08-11T04:49:13.887Z,7.38
2023-08-11T04:51:43.498Z,7.70
2023-08-11T04:54:13.092Z,6.95
2023-08-11T04:56:45.648Z,10.80
2023-08-11T05:01:44.764Z,10.80
2023-08-11T05:04:14.373Z,8.00
2023-08-11T05:06:43.952Z,11.40
2023-08-11T05:09:13.563Z,10.25
2023-08-11T05:11:45.697Z,7.30
2023-08-11T05:14:17.065Z,8.10
2023-08-11T05:16:46.625Z,9.18
2023-08-11T05:19:16.600Z,7.72
2023-08-11T05:21:46.140Z,10.00
2023-08-11T05:24:15.852Z,7.40
2023-08-11T05:26:48.528Z,8.23
2023-08-11T05:29:18.077Z,11.75
2023-08-11T05:31:47.633Z,8.07
2023-08-11T05:34:17.176Z,9.13
2023-08-11T05:36:46.957Z,10.80
2023-08-11T05:39:16.613Z,9.20
2023-08-11T05:41:48.831Z,9.50
2023-08-11T05:44:18.385Z,8.52
2023-08-11T05:46:47.942Z,10.10
2023-08-11T05:49:17.580Z,7.70
2023-08-11T05:51:47.125Z,10.10
2023-08-11T05:54:16.712Z,7.20
2023-08-11T05:56:48.860Z,8.77
2023-08-11T05:59:18.408Z,8.18
2023-08-11T06:01:48.214Z,8.05
2023-08-11T06:04:17.845Z,7.53
2023-08-11T06:06:47.477Z,9.77
2023-08-11T06:09:17.082Z,8.93
2023-08-11T06:11:49.241Z,11.73
2023-08-11T06:14:18.867Z,9.15
2023-08-11T06:16:48.721Z,6.28
2023-08-11T06:19:18.302Z,10.55
2023-08-11T06:21:48.600Z,7.55
2023-08-11T06:24:18.227Z,8.25
2023-08-11T06:26:50.407Z,5.78
2023-08-11T06:29:20.161Z,7.93
2023-08-11T06:31:50.342Z,7.18
2023-08-11T06:34:21.737Z,8.25
2023-08-11T06:36:51.457Z,7.75
2023-08-11T06:39:21.019Z,7.78
2023-08-11T06:41:53.237Z,10.38
2023-08-11T06:44:42.798Z,7.18
2023-08-11T06:47:12.383Z,6.90
2023-08-11T06:49:41.926Z,7.32
2023-08-11T06:52:12.874Z,6.00
2023-08-11T06:54:43.122Z,6.50
2023-08-11T06:57:15.525Z,8.15
2023-08-11T06:59:45.113Z,7.18
2023-08-11T07:02:14.717Z,7.00
2023-08-11T07:04:44.396Z,5.75
2023-08-11T07:07:14.056Z,7.82
2023-08-11T07:09:43.765Z,8.60
2023-08-11T07:12:16.137Z,7.20
2023-08-11T07:14:46.094Z,8.40
2023-08-11T07:17:15.717Z,5.22
2023-08-11T07:19:45.594Z,7.93
2023-08-11T07:22:15.212Z,8.93
2023-08-11T07:24:44.786Z,6.10
2023-08-11T07:27:19.315Z,4.97
2023-08-11T07:29:49.258Z,5.72
2023-08-11T07:32:18.897Z,5.97
2023-08-11T07:34:48.539Z,6.78
2023-08-11T07:37:18.144Z,6.07
2023-08-11T07:39:47.723Z,4.40
2023-08-11T07:42:19.895Z,5.57
2023-08-11T07:44:49.464Z,6.70
2023-08-11T07:47:19.038Z,5.45
2023-08-11T07:49:48.617Z,7.07
2023-08-11T07:52:18.824Z,4.57
2023-08-11T07:54:48.476Z,5.28
2023-08-11T07:57:20.796Z,5.03
2023-08-11T07:59:50.412Z,5.55
2023-08-11T08:02:20.083Z,6.20
2023-08-11T08:04:49.671Z,3.15
2023-08-11T08:07:19.257Z,5.07
2023-08-11T08:09:48.993Z,6.50
2023-08-11T08:12:21.138Z,8.18
2023-08-11T08:14:50.767Z,5.85
2023-08-11T08:17:20.657Z,4.43
2023-08-11T08:19:51.161Z,4.35
2023-08-11T08:22:20.904Z,5.32
2023-08-11T08:24:51.030Z,5.97
2023-08-11T08:27:25.674Z,4.15
2023-08-11T08:29:56.045Z,5.63
2023-08-11T08:32:25.702Z,4.50
2023-08-11T08:34:55.448Z,2.88
2023-08-11T08:37:26.042Z,3.45
2023-08-11T08:39:56.521Z,5.00
2023-08-11T08:42:29.695Z,4.22
2023-08-11T08:45:00.770Z,2.90
2023-08-11T08:47:30.911Z,3.30
2023-08-11T08:50:03.191Z,2.95
2023-08-11T08:52:34.025Z,3.28
2023-08-11T08:55:04.764Z,4.38
2023-08-11T08:57:37.680Z,5.03
2023-08-11T09:00:09.237Z,4.88
2023-08-11T09:02:39.405Z,7.13
2023-08-11T09:05:10.823Z,1.52
2023-08-11T09:07:40.403Z,1.30
2023-08-11T09:10:11.670Z,1.48
2023-08-11T09:12:46.116Z,3.15
2023-08-11T09:15:16.821Z,2.15
2023-08-11T09:17:46.518Z,2.33
2023-08-11T09:20:20.956Z,2.25
2023-08-11T09:22:50.635Z,1.35
2023-08-11T09:25:20.323Z,1.70
2023-08-11T09:27:55.489Z,1.13
2023-08-11T09:30:25.062Z,4.90
2023-08-11T09:32:54.829Z,4.15
2023-08-11T09:35:27.689Z,2.92
2023-08-11T09:37:57.543Z,2.08
2023-08-11T09:40:27.140Z,3.15
2023-08-11T09:43:00.452Z,3.30
2023-08-11T09:45:34.512Z,1.83
2023-08-11T09:48:04.100Z,1.75
2023-08-11T09:50:37.770Z,1.52
2023-08-11T09:53:09.148Z,4.60
2023-08-11T09:55:41.322Z,3.13
2023-08-11T09:58:16.336Z,2.70
2023-08-11T10:00:47.266Z,5.65
2023-08-11T10:03:26.908Z,5.10
2023-08-11T10:05:58.890Z,3.33
2023-08-11T10:08:31.121Z,4.88
2023-08-11T10:11:04.623Z,6.00
2023-08-11T10:13:37.618Z,5.22
2023-08-11T10:16:08.521Z,3.33
2023-08-11T10:18:39.792Z,5.20
2023-08-11T10:21:09.598Z,7.95
2023-08-11T10:23:40.425Z,6.10
2023-08-11T10:26:15.724Z,4.32
2023-08-11T10:28:48.790Z,4.15
2023-08-11T10:31:18.418Z,4.05
2023-08-11T10:33:52.996Z,9.00
2023-08-11T10:36:25.807Z,6.10
2023-08-11T10:39:04.825Z,7.22
2023-08-11T10:41:34.821Z,5.45
2023-08-11T10:44:08.664Z,4.00
2023-08-11T10:46:39.709Z,3.95
2023-08-11T10:49:23.769Z,5.03
2023-08-11T10:51:55.222Z,6.40
2023-08-11T10:54:27.786Z,4.40
2023-08-11T10:56:57.657Z,5.97
2023-08-11T10:59:32.215Z,3.65
2023-08-11T11:02:04.684Z,4.43
2023-08-11T11:07:08.607Z,4.57
2023-08-11T11:09:38.311Z,8.63
2023-08-11T11:12:09.885Z,4.28
2023-08-11T11:14:42.413Z,5.55
2023-08-11T11:19:59.205Z,4.47
2023-08-11T11:22:32.836Z,4.50
2023-08-11T11:25:04.268Z,4.10
2023-08-11T11:27:33.848Z,5.85
2023-08-11T11:30:06.482Z,3.05
2023-08-11T11:32:36.197Z,5.25
2023-08-11T11:35:06.792Z,4.70
2023-08-11T11:37:37.268Z,5.65
2023-08-11T11:40:10.661Z,7.32
2023-08-11T11:42:40.328Z,4.82
2023-08-11T11:45:21.869Z,5.65
2023-08-11T11:47:54.631Z,7.55
2023-08-11T11:50:27.010Z,6.13
2023-08-11T11:52:57.346Z,5.88
2023-08-11T11:55:27.781Z,6.13
2023-08-11T11:57:59.718Z,5.85
2023-08-11T12:00:35.652Z,5.55
2023-08-11T12:05:48.051Z,5.95
2023-08-11T12:08:22.347Z,5.78
2023-08-11T12:10:53.933Z,3.42
2023-08-11T12:13:23.807Z,5.32
2023-08-11T12:15:56.081Z,6.07
2023-08-11T12:18:25.693Z,4.55
2023-08-11T12:20:55.273Z,5.20
2023-08-11T12:23:24.832Z,6.10
2023-08-11T12:25:54.532Z,5.43
2023-08-11T12:28:24.342Z,6.35
2023-08-11T12:30:56.592Z,4.57
2023-08-11T12:33:26.784Z,5.25
2023-08-11T12:35:56.435Z,5.28
2023-08-11T12:38:26.211Z,5.65
2023-08-11T12:40:55.792Z,4.57
2023-08-11T12:43:25.374Z,7.20
2023-08-11T12:45:57.624Z,7.40
2023-08-11T12:48:27.172Z,7.72
2023-08-11T12:50:56.734Z,5.65
2023-08-11T12:53:26.265Z,7.93
2023-08-11T12:55:55.850Z,7.20
2023-08-11T12:58:25.445Z,6.95
2023-08-11T13:00:57.653Z,5.20
2023-08-11T13:03:27.373Z,4.35
2023-08-11T13:05:56.945Z,6.45
2023-08-11T13:08:26.505Z,6.88
2023-08-11T13:10:56.329Z,5.60
2023-08-11T13:13:25.890Z,8.18
2023-08-11T13:15:58.065Z,4.75
2023-08-11T13:18:27.748Z,5.47
2023-08-11T13:20:57.473Z,7.55
2023-08-11T13:23:30.213Z,3.15
2023-08-11T13:26:01.059Z,6.75
2023-08-11T13:28:35.011Z,5.70
2023-08-11T13:31:07.423Z,7.88
2023-08-11T13:36:06.880Z,5.13
2023-08-11T13:38:36.413Z,7.00
2023-08-11T13:43:44.849Z,3.58
2023-08-11T13:46:17.829Z,6.07
2023-08-11T13:48:47.435Z,7.70
2023-08-11T13:51:17.023Z,5.85
2023-08-11T13:53:49.314Z,5.10
2023-08-11T13:56:18.856Z,5.65
2023-08-11T13:58:48.441Z,4.07
2023-08-11T14:01:20.574Z,4.28
2023-08-11T14:03:50.196Z,6.18
2023-08-11T14:06:19.760Z,4.25
2023-08-11T14:08:49.352Z,7.30
2023-08-11T14:11:24.211Z,4.60
2023-08-11T14:13:54.269Z,4.70
2023-08-11T14:16:26.426Z,5.07
2023-08-11T14:18:57.022Z,6.20
2023-08-11T14:21:26.784Z,7.00
2023-08-11T14:23:56.375Z,3.95
2023-08-11T14:26:25.948Z,4.50
2023-08-11T14:28:55.510Z,7.03
2023-08-11T14:31:27.743Z,3.95
2023-08-11T14:33:57.426Z,5.97
2023-08-11T14:36:27.162Z,3.28
2023-08-11T14:38:56.860Z,4.93
2023-08-11T14:41:26.457Z,4.93
2023-08-11T14:43:56.022Z,5.32
2023-08-11T14:46:28.341Z,3.72
2023-08-11T14:51:27.296Z,5.50
2023-08-11T14:53:56.840Z,4.70
2023-08-11T14:56:27.658Z,6.03
2023-08-11T14:58:57.431Z,5.55
2023-08-11T15:01:29.688Z,4.38
2023-08-11T15:06:28.652Z,5.60
2023-08-11T15:08:58.193Z,4.22
2023-08-11T15:11:27.868Z,5.05
2023-08-11T15:13:57.593Z,5.90
2023-08-11T15:16:29.972Z,8.88
2023-08-11T15:18:59.774Z,6.25
2023-08-11T15:21:29.536Z,3.83
2023-08-11T15:23:59.301Z,5.72
2023-08-11T15:26:29.394Z,6.82
2023-08-11T15:29:00.851Z,5.72
2023-08-11T15:31:36.007Z,5.97
2023-08-11T15:34:07.061Z,5.43
2023-08-11T15:36:36.922Z,6.20
2023-08-11T15:39:08.070Z,8.32
2023-08-11T15:41:37.730Z,6.07
2023-08-11T15:44:07.817Z,5.63
2023-08-11T15:46:40.234Z,5.93
2023-08-11T15:49:09.907Z,6.47
2023-08-11T15:51:39.569Z,6.05
2023-08-11T15:54:09.273Z,7.45
2023-08-11T15:56:38.929Z,6.85
2023-08-11T15:59:09.225Z,7.07
2023-08-11T16:01:45.827Z,5.35
2023-08-11T16:04:22.290Z,5.00
2023-08-11T16:06:52.260Z,7.13
2023-08-11T16:09:22.223Z,4.10
2023-08-11T16:11:53.966Z,5.30
2023-08-11T16:17:05.716Z,7.63
2023-08-11T16:19:36.213Z,5.47
2023-08-11T16:22:05.802Z,5.13
2023-08-11T16:24:35.506Z,7.57
2023-08-11T16:27:05.106Z,4.68
2023-08-11T16:29:39.492Z,6.43
2023-08-11T16:32:12.069Z,5.70
2023-08-11T16:34:41.951Z,6.13
2023-08-11T16:37:11.469Z,8.25
2023-08-11T16:39:41.567Z,8.45
2023-08-11T16:42:11.360Z,11.60
2023-08-11T16:44:42.698Z,7.60
2023-08-11T16:47:14.873Z,5.43
2023-08-11T16:49:44.460Z,4.50
2023-08-11T16:52:14.289Z,6.32
2023-08-11T16:54:43.861Z,6.38
2023-08-11T16:57:14.160Z,7.70
2023-08-11T16:59:43.734Z,7.63
2023-08-11T17:02:15.932Z,8.98
2023-08-11T17:07:14.906Z,6.70
2023-08-11T17:09:44.478Z,6.18
2023-08-11T17:12:14.453Z,4.93
2023-08-11T17:14:44.262Z,5.85
2023-08-11T17:17:16.418Z,7.30
2023-08-11T17:19:45.992Z,8.18
2023-08-11T17:22:15.760Z,6.57
2023-08-11T17:24:45.317Z,5.80
2023-08-11T17:27:14.923Z,9.23
2023-08-11T17:29:46.125Z,7.25
2023-08-11T17:32:18.406Z,7.28
2023-08-11T17:37:23.978Z,7.35
2023-08-11T17:39:54.121Z,8.15
2023-08-11T17:42:23.825Z,8.55
2023-08-11T17:44:53.378Z,7.63
2023-08-11T17:47:25.526Z,7.50
2023-08-11T17:49:55.146Z,9.35
2023-08-11T17:52:24.688Z,7.55
2023-08-11T17:54:54.422Z,8.30
2023-08-11T17:57:24.097Z,8.15
2023-08-11T17:59:53.893Z,10.23
2023-08-11T18:02:26.159Z,10.32
2023-08-11T18:07:25.209Z,6.38
2023-08-11T18:09:54.975Z,9.77
2023-08-11T18:12:27.417Z,9.30
2023-08-11T18:14:58.612Z,8.20
2023-08-11T18:17:30.770Z,9.95
2023-08-11T18:20:00.351Z,10.73
2023-08-11T18:22:33.782Z,9.63
2023-08-11T18:25:04.973Z,13.20
2023-08-11T18:27:34.728Z,10.13
2023-08-11T18:30:05.225Z,9.38
2023-08-11T18:32:37.386Z,8.25
2023-08-11T18:35:08.070Z,10.20
2023-08-11T18:37:37.625Z,12.77
2023-08-11T18:40:08.494Z,11.93
2023-08-11T18:42:38.138Z,12.05
2023-08-11T18:45:09.133Z,13.52
2023-08-11T18:47:41.405Z,12.30
2023-08-11T18:52:41.006Z,10.45
2023-08-11T18:55:11.478Z,11.45
2023-08-11T18:57:41.076Z,12.85
2023-08-11T19:00:13.929Z,11.10
2023-08-11T19:02:46.432Z,15.15
2023-08-11T19:05:16.150Z,15.20
2023-08-11T19:07:45.698Z,14.15
2023-08-11T19:10:15.768Z,13.43
2023-08-11T19:12:45.382Z,14.52
2023-08-11T19:15:14.982Z,14.15
2023-08-11T19:17:47.245Z,12.05
2023-08-11T19:22:46.546Z,13.95
2023-08-11T19:25:16.141Z,12.98
2023-08-11T19:27:45.832Z,12.60
2023-08-11T19:30:15.643Z,12.50
2023-08-11T19:32:47.781Z,14.05
2023-08-11T19:35:17.368Z,12.20
2023-08-11T19:37:47.071Z,13.27
2023-08-11T19:40:16.633Z,11.07
2023-08-11T19:42:46.244Z,9.75
2023-08-11T19:45:15.778Z,11.07
2023-08-11T19:47:48.004Z,15.48
2023-08-11T19:52:46.971Z,11.18
2023-08-11T19:55:16.556Z,15.40
2023-08-11T19:57:46.108Z,14.73
2023-08-11T20:00:17.049Z,13.85
2023-08-11T20:02:51.234Z,12.15
2023-08-11T20:05:20.886Z,13.10
2023-08-11T20:07:50.549Z,12.98
2023-08-11T20:10:20.901Z,13.55
2023-08-11T20:12:51.162Z,16.42
2023-08-11T20:15:21.336Z,12.88
2023-08-11T20:17:53.571Z,14.27
2023-08-11T20:20:23.110Z,14.23
2023-08-11T20:22:52.692Z,14.60
2023-08-11T20:25:22.290Z,12.88
2023-08-11T20:27:51.983Z,13.90
2023-08-11T20:30:21.690Z,15.85
2023-08-11T20:32:54.204Z,15.60
2023-08-11T20:35:23.783Z,19.42
2023-08-11T20:37:50.995Z,15.10
2023-08-11T20:40:20.591Z,14.98
2023-08-11T20:42:50.148Z,17.55
2023-08-11T20:45:19.883Z,15.70
2023-08-11T20:47:49.518Z,14.63
2023-08-11T20:50:22.028Z,15.05
2023-08-11T20:52:51.761Z,16.55
2023-08-11T20:55:21.702Z,16.67
2023-08-11T20:57:52.161Z,18.65
2023-08-11T21:00:21.777Z,17.25
2023-08-11T21:02:51.332Z,16.38
2023-08-11T21:05:23.565Z,15.57
2023-08-11T21:07:53.134Z,16.67
2023-08-11T21:10:23.017Z,19.02
2023-08-11T21:12:52.594Z,16.88
2023-08-11T21:15:22.528Z,19.70
2023-08-11T21:17:54.222Z,17.08
2023-08-11T21:20:26.534Z,15.85
2023-08-11T21:22:56.254Z,16.25
2023-08-11T21:25:25.868Z,26.67
2023-08-11T21:27:55.532Z,17.92
2023-08-11T21:30:25.125Z,14.98
2023-08-11T21:32:54.759Z,13.57
2023-08-11T21:35:26.979Z,15.98
2023-08-11T21:37:56.676Z,19.25
2023-08-11T21:40:26.357Z,16.00
2023-08-11T21:42:55.981Z,17.85
2023-08-11T21:45:25.654Z,15.50
2023-08-11T21:47:55.415Z,20.50
2023-08-11T21:50:27.694Z,17.88
2023-08-11T21:52:59.777Z,16.25
2023-08-11T21:55:33.602Z,16.40
2023-08-11T21:58:04.566Z,19.77
2023-08-11T22:00:37.077Z,16.00
2023-08-11T22:03:07.291Z,14.90
2023-08-11T22:05:39.538Z,14.95
2023-08-11T22:08:09.380Z,15.50
2023-08-11T22:10:39.412Z,15.77
2023-08-11T22:13:09.412Z,18.08
2023-08-11T22:15:39.049Z,17.88
2023-08-11T22:18:08.819Z,17.63
2023-08-11T22:20:41.108Z,18.85
2023-08-11T22:23:10.789Z,16.75
2023-08-11T22:25:40.406Z,9.68
2023-08-11T22:28:10.013Z,12.75
2023-08-11T22:30:40.048Z,17.13
2023-08-11T22:33:11.318Z,11.18
2023-08-11T22:35:45.059Z,8.35
2023-08-11T22:38:15.254Z,13.65
2023-08-11T22:40:44.927Z,13.68
2023-08-11T22:43:14.762Z,14.23
2023-08-11T22:45:44.500Z,14.48
2023-08-11T22:48:14.161Z,17.75
2023-08-11T22:50:46.361Z,15.40
2023-08-11T22:53:15.932Z,19.90
2023-08-11T22:55:45.495Z,15.75
2023-08-11T22:58:15.309Z,17.45
2023-08-11T23:00:45.022Z,14.40
2023-08-11T23:03:14.639Z,14.25
2023-08-11T23:05:46.998Z,17.73
2023-08-11T23:08:16.664Z,13.65
2023-08-11T23:10:46.288Z,16.42
2023-08-11T23:13:16.353Z,15.68
2023-08-11T23:15:45.981Z,13.43
2023-08-11T23:18:15.594Z,12.60
2023-08-11T23:20:47.708Z,13.50
2023-08-11T23:23:17.334Z,13.43
2023-08-11T23:25:46.889Z,15.15
2023-08-11T23:28:16.503Z,11.60
2023-08-11T23:30:46.059Z,14.25
2023-08-11T23:33:16.490Z,10.50
2023-08-11T23:35:48.732Z,10.02
2023-08-11T23:38:18.887Z,10.77
2023-08-11T23:40:48.473Z,13.63
2023-08-11T23:43:18.759Z,14.15
2023-08-11T23:45:48.380Z,12.75
2023-08-11T23:48:18.487Z,12.40
2023-08-11T23:50:50.838Z,15.75
2023-08-11T23:53:20.404Z,12.88
2023-08-11T23:55:50.253Z,12.15
2023-08-11T23:58:19.875Z,11.88
